Lancaster Airport Lancaster US
ICAO: KLNS
IATA: LNS
Category: Medium
Scheduled Services: Yes

Elevation: 403 ft
TransAlt. 18000 ft.

Airport Communications:
HARRISBURG APP/DEP:126.45
ATIS:125.675
CTAF:120.9
GND:121.8
WILLIAMSPORT RDO:117.3
TWR:120.9
UNICOM:122.95

KLNS Zoom In..

If you have problems with the map follow the link
https://www.worldairports.se/pages/airport.php?
ICAO=KLNS

Runways:

(A) RW 08 length 6933 ft width 150 ft
ILS 108.70 / hdg 77

(B) RW 13 length 4102 ft width 100 ft
---- / hdg 128

(C) RW 26 length 6933 ft width 150 ft
---- / hdg 257

(D) RW 31 length 4102 ft width 100 ft
---- / hdg 308

Location; KLNS
Day. 23 / Time. 16.53 Zulu
* Altimeter: 29.99
* Temperature: 18° c. 64.4°f.
* Wind from: 230° Speed 11 kn.
Dewpoint: 07° c.
Visibility: 10 Statute Miles.
Clouds: Clear (automated report).

KLNS 231653Z 23011KT 10SM CLR 18/07 A2999 RMK AO2 SLP154 T01780067


Wind From 230°
Speed 11 kn.

 
 
jpsmedia.com for Web Design worldairports.se 2018   terms of use